Time;durP1;ratioP1;P1;durP2;ratioP2;P2;SDS_P1;SDS_P2;PMS_P1;PMS_P2;Temp;Humidity;BMP_temperature;BMP_pressure;BME280_temperature;BME280_humidity;BME280_pressure;Samples;Min_cycle;Max_cycle;Signal;HPM_P1;HPM_P2
2023/01/26 00:01:55;;;;;;;6.43;3.50;;;;;;;8.53;100.00;103177.94;5013425;28;20057;-78
2023/01/26 00:04:24;;;;;;;9.52;3.50;;;;;;;8.49;100.00;103172.44;5012513;28;20054;-78
2023/01/26 00:06:53;;;;;;;5.43;3.08;;;;;;;8.44;100.00;103174.66;5009400;28;20042;-78
2023/01/26 00:09:22;;;;;;;12.07;3.53;;;;;;;8.42;100.00;103176.22;5004721;28;20492;-78
2023/01/26 00:11:52;;;;;;;6.20;3.30;;;;;;;8.44;100.00;103173.78;5008520;28;20089;-78
2023/01/26 00:14:20;;;;;;;5.00;3.38;;;;;;;8.44;100.00;103174.66;5013292;28;20447;-78
2023/01/26 00:16:49;;;;;;;6.90;3.25;;;;;;;8.39;100.00;103171.69;5011204;28;20056;-80
2023/01/26 00:19:19;;;;;;;7.13;3.70;;;;;;;8.38;100.00;103179.31;5005098;28;20054;-81
2023/01/26 00:21:47;;;;;;;6.45;3.63;;;;;;;8.37;100.00;103170.69;5009434;28;20046;-79
2023/01/26 00:24:16;;;;;;;7.72;4.10;;;;;;;8.35;100.00;103164.50;5011995;28;20061;-78
2023/01/26 00:26:45;;;;;;;13.57;3.95;;;;;;;8.34;100.00;103162.72;5010833;28;20049;-79
2023/01/26 00:29:13;;;;;;;9.43;4.53;;;;;;;8.34;100.00;103161.81;5013124;28;20058;-80
2023/01/26 00:31:42;;;;;;;10.27;4.10;;;;;;;8.34;100.00;103159.25;5012686;28;20048;-79
2023/01/26 00:34:10;;;;;;;12.20;3.72;;;;;;;8.37;100.00;103162.06;5011355;28;20053;-78
2023/01/26 00:36:40;;;;;;;13.18;3.55;;;;;;;8.39;100.00;103161.38;5011345;28;20034;-77
2023/01/26 00:39:09;;;;;;;6.93;3.33;;;;;;;8.38;100.00;103161.25;5012627;28;20495;-76
2023/01/26 00:44:23;;;;;;;5.78;3.28;;;;;;;8.34;100.00;103161.81;5011895;28;20048;-73
2023/01/26 00:46:51;;;;;;;9.85;4.22;;;;;;;8.32;100.00;103158.22;5008732;28;20041;-74
2023/01/26 00:49:20;;;;;;;13.70;3.92;;;;;;;8.28;100.00;103156.19;5006392;28;20061;-74
2023/01/26 00:51:50;;;;;;;7.10;4.10;;;;;;;8.27;100.00;103162.09;5008261;28;20099;-74
2023/01/26 00:54:18;;;;;;;7.63;4.25;;;;;;;8.23;100.00;103163.56;5004799;28;20050;-72
2023/01/26 00:56:47;;;;;;;8.18;3.75;;;;;;;8.14;100.00;103158.59;5010747;28;20046;-77
2023/01/26 00:59:15;;;;;;;9.95;3.42;;;;;;;8.09;100.00;103164.19;5004970;28;20058;-74
2023/01/26 01:01:44;;;;;;;6.57;3.83;;;;;;;8.07;100.00;103155.41;5006954;28;20042;-73
2023/01/26 01:04:13;;;;;;;12.75;4.00;;;;;;;8.02;100.00;103167.94;5007206;28;20101;-73
2023/01/26 01:06:41;;;;;;;13.85;4.25;;;;;;;7.95;100.00;103170.84;5009149;28;20067;-75
2023/01/26 01:09:18;;;;;;;8.00;4.25;;;;;;;7.90;100.00;103173.06;5000372;28;20061;-74
2023/01/26 01:11:47;;;;;;;10.13;6.00;;;;;;;7.87;100.00;103172.78;5011597;28;20065;-78
2023/01/26 01:14:16;;;;;;;11.95;6.43;;;;;;;7.88;100.00;103176.25;5008191;28;20081;-80
2023/01/26 01:16:45;;;;;;;16.25;8.43;;;;;;;7.86;100.00;103175.25;5010487;28;20041;-81
2023/01/26 01:19:15;;;;;;;18.48;8.48;;;;;;;7.78;100.00;103166.00;5007992;28;20719;-80
2023/01/26 01:21:44;;;;;;;18.13;7.70;;;;;;;7.82;100.00;103178.38;5010752;28;20095;-80
2023/01/26 01:24:13;;;;;;;17.38;7.00;;;;;;;7.75;100.00;103183.03;5010531;28;20120;-79
2023/01/26 01:26:43;;;;;;;12.18;5.88;;;;;;;7.71;100.00;103175.81;5009266;28;20049;-78
2023/01/26 01:29:14;;;;;;;11.90;5.47;;;;;;;7.69;100.00;103179.94;4994071;28;20519;-77
2023/01/26 01:31:43;;;;;;;12.77;5.93;;;;;;;7.64;100.00;103178.69;5005504;28;20054;-80
2023/01/26 01:34:11;;;;;;;8.18;4.20;;;;;;;7.60;100.00;103179.22;4998464;28;20119;-81
2023/01/26 01:36:40;;;;;;;8.23;4.55;;;;;;;7.58;100.00;103180.75;5000334;28;20049;-78
2023/01/26 01:39:08;;;;;;;6.43;3.60;;;;;;;7.54;100.00;103178.75;5009606;28;20119;-80
2023/01/26 01:41:37;;;;;;;7.03;3.95;;;;;;;7.51;100.00;103175.91;5010586;28;20054;-76
2023/01/26 01:44:22;;;;;;;10.82;4.40;;;;;;;7.47;100.00;103168.72;5009780;28;20049;-78
2023/01/26 01:46:54;;;;;;;11.30;4.93;;;;;;;7.43;100.00;103167.56;5008722;28;20053;-74
2023/01/26 01:49:27;;;;;;;9.05;4.70;;;;;;;7.37;100.00;103161.00;5011170;28;20046;-86
2023/01/26 01:52:00;;;;;;;7.85;5.25;;;;;;;7.28;100.00;103162.09;5008339;28;20057;-75
2023/01/26 01:54:33;;;;;;;13.35;5.18;;;;;;;7.23;100.00;103160.78;5004664;28;20392;-79
2023/01/26 01:57:14;;;;;;;7.43;4.50;;;;;;;7.22;100.00;103161.56;5001831;28;20065;-81
2023/01/26 01:59:50;;;;;;;9.38;4.80;;;;;;;7.21;100.00;103164.91;5010013;28;20049;-87
2023/01/26 02:02:19;;;;;;;9.88;4.30;;;;;;;7.18;100.00;103169.81;5020415;28;20053;-82
2023/01/26 02:04:48;;;;;;;6.13;4.22;;;;;;;7.15;100.00;103167.00;5008253;28;20049;-77
2023/01/26 02:07:17;;;;;;;10.15;4.57;;;;;;;7.08;100.00;103177.56;5011008;28;20050;-76
2023/01/26 02:12:33;;;;;;;6.10;3.90;;;;;;;7.04;100.00;103172.94;4997145;28;20074;-78
2023/01/26 02:15:04;;;;;;;9.43;3.85;;;;;;;7.02;100.00;103177.94;5014891;28;20046;-81
2023/01/26 02:17:33;;;;;;;5.03;3.30;;;;;;;7.01;100.00;103186.47;5006639;28;20057;-78
2023/01/26 02:20:05;;;;;;;7.18;3.47;;;;;;;7.03;100.00;103184.00;5008202;28;20057;-77
2023/01/26 02:22:39;;;;;;;;;;;;;;;7.03;100.00;103184.91;5009559;28;20076;-78
2023/01/26 02:25:17;;;;;;;6.55;2.75;;;;;;;7.05;100.00;103192.75;5002052;28;20403;-76
2023/01/26 02:27:48;;;;;;;6.90;3.50;;;;;;;7.07;100.00;103180.91;5002670;28;20053;-82
2023/01/26 02:30:18;;;;;;;11.40;5.05;;;;;;;7.08;100.00;103185.28;5006900;28;20505;-78
2023/01/26 02:32:47;;;;;;;8.07;4.00;;;;;;;7.07;100.00;103191.19;5010288;28;20049;-77
2023/01/26 02:35:15;;;;;;;12.38;4.30;;;;;;;7.04;100.00;103189.28;5007632;28;20053;-78
2023/01/26 02:37:44;;;;;;;8.10;4.38;;;;;;;7.05;100.00;103192.75;5010617;28;20439;-77
2023/01/26 02:40:21;;;;;;;8.18;3.28;;;;;;;7.06;100.00;103195.47;5007336;28;20057;-77
2023/01/26 02:42:53;;;;;;;8.02;3.10;;;;;;;7.06;100.00;103199.72;5009867;28;20134;-78
2023/01/26 02:45:23;;;;;;;14.45;3.30;;;;;;;7.03;100.00;103199.44;5008179;28;20088;-78
2023/01/26 02:47:51;;;;;;;9.45;3.30;;;;;;;7.03;100.00;103191.72;5014468;28;20128;-88
2023/01/26 02:50:19;;;;;;;6.93;3.97;;;;;;;7.04;100.00;103196.09;5007825;28;20471;-86
2023/01/26 02:52:47;;;;;;;7.47;3.92;;;;;;;7.06;100.00;103194.56;4999971;28;20049;-87
2023/01/26 02:55:27;;;;;;;6.03;3.70;;;;;;;7.05;100.00;103197.88;5010478;28;20042;-84
2023/01/26 02:57:59;;;;;;;8.73;3.60;;;;;;;7.01;100.00;103200.97;5020286;28;20114;-90
2023/01/26 03:00:29;;;;;;;11.23;3.45;;;;;;;6.98;100.00;103203.31;5023461;28;20302;-88
2023/01/26 03:02:59;;;;;;;8.00;3.55;;;;;;;6.92;100.00;103202.03;5014060;28;20507;-84
2023/01/26 03:05:28;;;;;;;5.35;3.20;;;;;;;6.90;100.00;103203.56;5017120;28;20113;-90
2023/01/26 03:07:57;;;;;;;5.35;3.55;;;;;;;6.93;100.00;103202.94;5015854;28;20554;-88
2023/01/26 03:10:26;;;;;;;6.55;3.53;;;;;;;6.93;100.00;103205.50;5018807;28;20443;-85
2023/01/26 03:12:54;;;;;;;12.43;4.57;;;;;;;6.90;100.00;103205.25;5016839;28;20384;-83
2023/01/26 03:15:51;;;;;;;11.70;3.83;;;;;;;6.92;100.00;103207.19;5006724;28;20054;-86
2023/01/26 03:29:25;;;;;;;11.75;4.00;;;;;;;7.07;100.00;103204.06;5017848;28;20076;-90
2023/01/26 03:31:55;;;;;;;6.93;4.07;;;;;;;7.04;100.00;103198.69;5006854;28;20049;-89
2023/01/26 03:34:24;;;;;;;17.17;5.38;;;;;;;7.03;100.00;103205.50;5015838;28;20104;-79
2023/01/26 03:36:53;;;;;;;14.63;5.00;;;;;;;6.99;100.00;103207.69;5013892;28;20046;-78
2023/01/26 03:56:23;;;;;;;11.48;4.05;;;;;;;6.99;100.00;103223.16;5014657;28;20136;-79
2023/01/26 03:58:53;;;;;;;8.93;4.18;;;;;;;7.02;100.00;103223.38;5011531;28;20049;-79
2023/01/26 04:01:25;;;;;;;11.25;5.00;;;;;;;7.07;100.00;103222.09;5016819;28;20078;-79
2023/01/26 04:09:31;;;;;;;8.57;4.68;;;;;;;7.20;100.00;103230.06;5005160;28;20055;-77
2023/01/26 04:12:00;;;;;;;8.75;4.75;;;;;;;7.20;100.00;103235.22;5011670;28;20045;-75
2023/01/26 04:22:46;;;;;;;10.25;4.95;;;;;;;7.29;100.00;103253.09;5004774;28;20065;-79
2023/01/26 04:25:22;;;;;;;7.85;4.03;;;;;;;7.31;100.00;103251.56;5012939;28;20061;-79
2023/01/26 04:27:51;;;;;;;12.05;4.88;;;;;;;7.33;100.00;103257.75;4998372;28;20050;-79
2023/01/26 04:30:20;;;;;;;7.70;4.15;;;;;;;7.33;100.00;103253.50;5007339;28;20060;-80
2023/01/26 04:32:51;;;;;;;8.80;4.05;;;;;;;7.32;100.00;103253.34;5012445;28;20428;-84
2023/01/26 04:35:21;;;;;;;8.60;4.40;;;;;;;7.31;100.00;103249.88;5011521;28;20045;-83
2023/01/26 04:37:50;;;;;;;17.88;5.03;;;;;;;7.34;100.00;103255.28;5007955;28;20054;-81
2023/01/26 04:40:19;;;;;;;23.48;9.57;;;;;;;7.38;100.00;103250.41;5009283;28;20054;-80
2023/01/26 04:42:48;;;;;;;15.38;7.40;;;;;;;7.39;100.00;103253.06;5011380;28;20068;-80
2023/01/26 04:45:16;;;;;;;65.15;33.03;;;;;;;7.43;100.00;103246.53;5008938;28;20061;-80
2023/01/26 04:47:45;;;;;;;51.92;24.42;;;;;;;7.49;100.00;103250.50;5012421;28;20137;-81
2023/01/26 04:50:14;;;;;;;13.35;6.22;;;;;;;7.46;100.00;103241.59;5011599;28;20050;-81
2023/01/26 04:52:44;;;;;;;14.55;5.20;;;;;;;7.52;100.00;103249.84;5008450;28;20049;-82
2023/01/26 04:55:12;;;;;;;28.23;13.50;;;;;;;7.47;100.00;103233.13;5006701;28;20038;-78
2023/01/26 04:57:41;;;;;;;11.50;5.10;;;;;;;7.58;100.00;103233.97;5013101;28;20491;-77
2023/01/26 05:00:11;;;;;;;11.73;5.82;;;;;;;7.59;100.00;103235.78;5014573;28;20503;-75
2023/01/26 05:02:40;;;;;;;9.93;4.68;;;;;;;7.62;100.00;103236.03;5010625;28;20141;-75
2023/01/26 05:05:09;;;;;;;16.30;4.55;;;;;;;7.61;100.00;103232.56;5011530;28;20077;-75
2023/01/26 05:07:38;;;;;;;10.75;4.82;;;;;;;7.55;100.00;103232.06;5010605;28;20057;-75
2023/01/26 05:10:09;;;;;;;8.90;4.68;;;;;;;7.55;100.00;103232.94;5011572;28;20510;-74
2023/01/26 05:12:41;;;;;;;13.57;5.38;;;;;;;7.48;100.00;103214.31;5010824;28;20057;-75
2023/01/26 05:15:10;;;;;;;9.57;4.95;;;;;;;7.54;100.00;103225.13;5010949;28;20074;-77
2023/01/26 05:17:39;;;;;;;11.13;5.45;;;;;;;7.57;100.00;103227.03;5010705;28;20057;-75
2023/01/26 05:20:09;;;;;;;13.18;7.35;;;;;;;7.57;100.00;103229.59;4997248;28;20050;-76
2023/01/26 05:22:37;;;;;;;11.07;5.22;;;;;;;7.56;100.00;103228.72;5008185;28;20439;-76
2023/01/26 05:25:08;;;;;;;18.02;6.63;;;;;;;7.58;100.00;103231.41;5003979;28;20128;-76
2023/01/26 05:27:37;;;;;;;10.45;4.82;;;;;;;7.58;100.00;103234.88;5006894;28;20051;-77
2023/01/26 05:30:06;;;;;;;11.18;5.78;;;;;;;7.57;100.00;103230.50;5006486;28;20528;-78
2023/01/26 05:32:35;;;;;;;14.02;5.35;;;;;;;7.60;100.00;103230.75;5017769;28;20045;-77
2023/01/26 05:35:05;;;;;;;10.63;4.32;;;;;;;7.61;100.00;103229.09;5009628;28;20058;-79
2023/01/26 05:37:34;;;;;;;12.88;5.07;;;;;;;7.62;100.00;103225.72;4998303;28;20644;-77
2023/01/26 05:40:03;;;;;;;15.68;4.75;;;;;;;7.62;100.00;103226.63;5004864;28;20112;-79
2023/01/26 05:42:33;;;;;;;7.78;4.10;;;;;;;7.61;100.00;103219.69;5009581;28;20479;-78
2023/01/26 05:45:02;;;;;;;10.27;5.32;;;;;;;7.57;100.00;103216.72;5008816;28;20435;-77
2023/01/26 05:47:30;;;;;;;10.82;4.97;;;;;;;7.53;100.00;103216.47;5007947;28;20054;-78
2023/01/26 05:49:59;;;;;;;9.95;5.00;;;;;;;7.53;100.00;103215.56;5009118;28;20046;-77
2023/01/26 05:52:27;;;;;;;13.23;5.10;;;;;;;7.54;100.00;103218.28;5009689;28;20072;-77
2023/01/26 05:54:56;;;;;;;6.97;4.32;;;;;;;7.55;100.00;103219.16;5008127;28;20507;-78
2023/01/26 05:57:25;;;;;;;9.40;4.70;;;;;;;7.53;100.00;103215.56;5005408;28;20045;-78
2023/01/26 05:59:55;;;;;;;11.68;5.38;;;;;;;7.54;100.00;103219.97;5010610;28;20408;-77
2023/01/26 06:02:26;;;;;;;10.88;5.45;;;;;;;7.53;100.00;103226.75;5000644;28;20511;-78
2023/01/26 06:04:54;;;;;;;13.40;4.97;;;;;;;7.49;100.00;103224.75;5008392;28;20049;-77
2023/01/26 06:07:25;;;;;;;9.18;4.95;;;;;;;7.50;100.00;103220.47;4999121;28;20130;-77
2023/01/26 06:09:53;;;;;;;10.65;4.57;;;;;;;7.52;100.00;103218.94;5005075;28;20046;-79
2023/01/26 06:12:34;;;;;;;7.63;4.45;;;;;;;7.54;100.00;103219.97;5010606;28;20396;-78
2023/01/26 06:15:05;;;;;;;9.35;4.32;;;;;;;7.53;100.00;103221.63;5007963;28;20061;-77
2023/01/26 06:17:33;;;;;;;11.68;5.32;;;;;;;7.54;100.00;103217.38;5009906;28;20057;-80
2023/01/26 06:20:02;;;;;;;8.57;4.88;;;;;;;7.53;100.00;103215.56;5011973;28;20089;-79
2023/01/26 06:22:30;;;;;;;10.25;5.47;;;;;;;7.54;100.00;103215.69;5008701;28;20054;-77
2023/01/26 06:25:01;;;;;;;10.52;4.68;;;;;;;7.54;100.00;103213.13;5006305;28;20054;-80
2023/01/26 06:27:30;;;;;;;8.52;4.70;;;;;;;7.57;100.00;103209.00;5004613;28;20047;-77
2023/01/26 06:29:58;;;;;;;10.07;5.15;;;;;;;7.58;100.00;103214.25;5004770;28;20479;-80
2023/01/26 06:32:29;;;;;;;7.88;4.93;;;;;;;7.56;100.00;103210.69;5006083;28;20504;-81
2023/01/26 06:34:58;;;;;;;8.20;4.13;;;;;;;7.52;100.00;103208.63;5005540;28;20049;-80
2023/01/26 06:37:26;;;;;;;9.25;4.68;;;;;;;7.51;100.00;103206.81;5012058;28;20057;-80
2023/01/26 06:39:55;;;;;;;8.35;4.57;;;;;;;7.52;100.00;103211.19;5017765;28;20042;-79
2023/01/26 06:42:24;;;;;;;9.57;5.13;;;;;;;7.54;100.00;103207.06;5017059;28;20045;-80
2023/01/26 06:44:52;;;;;;;15.73;5.72;;;;;;;7.55;100.00;103209.75;5015944;28;20045;-80
2023/01/26 06:47:21;;;;;;;12.07;5.43;;;;;;;7.58;100.00;103218.50;5015876;28;20049;-79
2023/01/26 06:49:51;;;;;;;10.23;3.95;;;;;;;7.57;100.00;103209.91;5017348;28;20046;-80
2023/01/26 06:52:28;;;;;;;7.85;4.55;;;;;;;7.53;100.00;103213.00;5011114;28;20081;-78
2023/01/26 06:54:59;;;;;;;9.07;4.50;;;;;;;7.49;100.00;103217.00;5016723;28;20081;-80
2023/01/26 06:57:28;;;;;;;7.32;4.32;;;;;;;7.45;100.00;103220.09;5018461;28;20050;-78
2023/01/26 06:59:56;;;;;;;7.50;4.13;;;;;;;7.41;100.00;103209.44;5015262;28;20046;-77
2023/01/26 07:02:25;;;;;;;9.50;4.53;;;;;;;7.38;100.00;103204.94;5017155;28;20511;-77
2023/01/26 07:04:55;;;;;;;12.05;4.80;;;;;;;7.37;100.00;103212.53;5016452;28;20054;-80
2023/01/26 07:07:24;;;;;;;14.13;4.10;;;;;;;7.40;100.00;103217.91;5016756;28;20116;-79
2023/01/26 07:09:52;;;;;;;14.98;4.93;;;;;;;7.43;100.00;103213.03;5014126;28;20057;-79
2023/01/26 07:12:21;;;;;;;12.23;4.60;;;;;;;7.42;100.00;103214.72;5016749;28;20050;-78
2023/01/26 07:14:50;;;;;;;8.60;4.35;;;;;;;7.43;100.00;103213.03;5014909;28;20050;-79
2023/01/26 07:17:18;;;;;;;7.40;4.10;;;;;;;7.45;100.00;103216.63;5015584;28;20049;-79
2023/01/26 07:19:47;;;;;;;15.88;4.88;;;;;;;7.48;100.00;103211.72;5004607;28;20520;-79
2023/01/26 07:22:17;;;;;;;10.13;4.10;;;;;;;7.39;100.00;103203.25;5014318;28;20045;-78
2023/01/26 07:24:45;;;;;;;12.48;5.05;;;;;;;7.38;100.00;103214.34;5013335;28;20049;-77
2023/01/26 07:27:14;;;;;;;7.05;3.97;;;;;;;7.34;100.00;103216.63;5012515;28;20123;-78
2023/01/26 07:29:43;;;;;;;10.50;4.43;;;;;;;7.36;100.00;103210.72;5009704;28;20050;-79
2023/01/26 07:32:11;;;;;;;10.18;4.47;;;;;;;7.37;100.00;103220.25;5012121;28;20420;-78
2023/01/26 07:34:40;;;;;;;13.73;4.50;;;;;;;7.38;100.00;103214.34;5009004;28;20050;-79
2023/01/26 07:37:08;;;;;;;8.25;4.53;;;;;;;7.40;100.00;103217.91;5006418;28;20038;-79
2023/01/26 07:39:38;;;;;;;8.27;4.00;;;;;;;7.40;100.00;103228.22;5016260;28;20052;-77
2023/01/26 07:42:07;;;;;;;7.13;3.80;;;;;;;7.41;100.00;103219.72;5015712;28;20084;-76
2023/01/26 07:44:38;;;;;;;11.05;4.68;;;;;;;7.44;100.00;103219.97;5015293;28;20054;-77
2023/01/26 07:47:07;;;;;;;7.15;4.03;;;;;;;7.43;100.00;103218.19;5015995;28;20488;-77
2023/01/26 07:49:35;;;;;;;9.35;4.47;;;;;;;7.40;100.00;103215.34;5009744;28;20112;-79
2023/01/26 07:52:05;;;;;;;10.98;4.63;;;;;;;7.38;100.00;103207.50;5013407;28;20625;-78
2023/01/26 07:54:33;;;;;;;11.10;5.10;;;;;;;7.45;100.00;103217.53;5014304;28;20069;-79
2023/01/26 07:57:05;;;;;;;9.32;4.45;;;;;;;7.50;100.00;103223.94;5010963;28;20049;-78
2023/01/26 07:59:42;;;;;;;15.00;4.90;;;;;;;7.50;100.00;103220.47;5016309;28;20049;-78
2023/01/26 08:02:11;;;;;;;16.50;5.15;;;;;;;7.51;100.00;103217.13;5008583;28;20046;-79
2023/01/26 08:04:40;;;;;;;11.65;5.43;;;;;;;7.53;100.00;103215.56;5013132;28;20129;-78
2023/01/26 08:07:08;;;;;;;10.60;4.78;;;;;;;7.55;100.00;103208.88;5007537;28;20049;-78
2023/01/26 08:09:37;;;;;;;11.48;4.30;;;;;;;7.54;100.00;103207.06;5013049;28;20053;-78
2023/01/26 08:12:07;;;;;;;10.05;4.65;;;;;;;7.52;100.00;103204.38;5007766;28;20057;-78
2023/01/26 08:14:48;;;;;;;10.20;4.95;;;;;;;7.54;100.00;103210.56;5009207;28;20065;-78
2023/01/26 08:17:17;;;;;;;9.05;4.22;;;;;;;7.54;100.00;103200.25;5014012;28;20610;-78
2023/01/26 08:19:46;;;;;;;10.68;4.88;;;;;;;7.55;100.00;103202.03;5000709;28;20089;-78
2023/01/26 08:22:14;;;;;;;12.88;4.10;;;;;;;7.47;100.00;103181.59;5011407;28;20041;-78
2023/01/26 08:24:43;;;;;;;15.65;7.15;;;;;;;7.49;100.00;103198.06;5012620;28;20527;-78
2023/01/26 08:27:13;;;;;;;17.90;5.82;;;;;;;7.48;100.00;103199.75;5008399;28;20094;-78
2023/01/26 08:29:42;;;;;;;11.10;6.03;;;;;;;7.48;100.00;103193.69;5003482;28;20050;-78
2023/01/26 08:32:11;;;;;;;12.48;4.65;;;;;;;7.48;100.00;103196.25;5012028;28;20061;-78
2023/01/26 08:34:39;;;;;;;9.48;4.95;;;;;;;7.49;100.00;103192.91;5013250;28;20175;-79
2023/01/26 08:37:08;;;;;;;9.60;5.00;;;;;;;7.49;100.00;103195.47;5002094;28;20050;-78
2023/01/26 08:39:36;;;;;;;14.07;6.55;;;;;;;7.44;100.00;103189.06;5012617;28;20057;-78
2023/01/26 08:42:05;;;;;;;11.57;6.18;;;;;;;7.46;100.00;103195.25;5012346;28;20251;-78
2023/01/26 08:44:35;;;;;;;10.55;6.22;;;;;;;7.49;100.00;103200.63;5010683;28;20046;-78
2023/01/26 08:47:04;;;;;;;12.55;5.45;;;;;;;7.50;100.00;103199.88;5012822;28;20046;-78
2023/01/26 08:49:32;;;;;;;11.95;5.53;;;;;;;7.50;100.00;103203.34;5017050;28;20071;-79
2023/01/26 08:52:01;;;;;;;18.52;7.18;;;;;;;7.52;100.00;103203.47;5011813;28;20571;-79
2023/01/26 08:54:29;;;;;;;12.63;6.25;;;;;;;7.53;100.00;103192.38;5010760;28;20128;-77
2023/01/26 08:56:59;;;;;;;11.43;4.85;;;;;;;7.48;100.00;103193.69;5014576;28;20089;-79
2023/01/26 08:59:27;;;;;;;14.00;6.40;;;;;;;7.44;100.00;103182.22;5011176;28;20112;-78
2023/01/26 09:01:57;;;;;;;12.52;5.55;;;;;;;7.43;100.00;103187.28;5011373;28;20057;-79
2023/01/26 09:04:27;;;;;;;10.30;5.05;;;;;;;7.42;100.00;103178.66;5005008;28;20046;-77
2023/01/26 09:06:56;;;;;;;12.07;4.93;;;;;;;7.40;100.00;103176.69;5005188;28;20049;-77
2023/01/26 09:09:24;;;;;;;8.50;3.83;;;;;;;7.37;100.00;103179.03;5012130;28;20487;-78
2023/01/26 09:11:56;;;;;;;6.82;4.32;;;;;;;7.37;100.00;103184.19;5006533;28;20046;-79
2023/01/26 09:14:26;;;;;;;7.13;3.60;;;;;;;7.37;100.00;103191.91;5004509;28;20049;-80
2023/01/26 09:16:54;;;;;;;8.88;4.45;;;;;;;7.38;100.00;103193.72;5006427;28;20632;-80
2023/01/26 09:19:25;;;;;;;7.43;4.13;;;;;;;7.43;100.00;103195.00;5006436;28;20054;-79
2023/01/26 09:21:54;;;;;;;6.72;4.35;;;;;;;7.45;100.00;103196.03;5009116;28;20050;-79
2023/01/26 09:24:23;;;;;;;10.20;5.70;;;;;;;7.43;100.00;103195.00;5003460;28;20057;-78
2023/01/26 09:26:51;;;;;;;10.10;5.10;;;;;;;7.41;100.00;103194.88;5007726;28;20121;-79
2023/01/26 09:29:20;;;;;;;9.05;4.80;;;;;;;7.42;100.00;103195.75;5001133;28;20510;-81
2023/01/26 09:31:49;;;;;;;10.73;4.57;;;;;;;7.43;100.00;103193.31;5010286;28;20149;-81
2023/01/26 09:34:17;;;;;;;13.30;5.28;;;;;;;7.45;100.00;103196.94;5008783;28;20503;-80
2023/01/26 09:36:47;;;;;;;10.68;5.03;;;;;;;7.49;100.00;103195.47;5002354;28;20484;-78
2023/01/26 09:39:16;;;;;;;9.95;4.95;;;;;;;7.50;100.00;103200.75;5008796;28;20038;-79
2023/01/26 09:41:55;;;;;;;10.25;5.03;;;;;;;7.51;100.00;103200.00;5010643;28;20471;-78
2023/01/26 09:44:26;;;;;;;9.27;5.05;;;;;;;7.52;100.00;103203.47;5011084;28;20108;-77
2023/01/26 09:47:07;;;;;;;12.77;5.30;;;;;;;7.54;100.00;103205.41;5009143;28;20057;-78
2023/01/26 09:49:48;;;;;;;11.13;5.63;;;;;;;7.50;100.00;103207.59;4999618;28;20145;-79
2023/01/26 09:52:27;;;;;;;16.10;5.38;;;;;;;7.49;100.00;103210.94;5005628;28;20050;-78
2023/01/26 09:54:58;;;;;;;14.52;5.60;;;;;;;7.50;100.00;103211.06;5012590;28;20048;-78
2023/01/26 09:57:34;;;;;;;12.50;5.82;;;;;;;7.51;100.00;103214.53;5013612;28;20093;-78
2023/01/26 10:00:17;;;;;;;11.40;6.05;;;;;;;7.53;100.00;103215.56;5013520;28;20129;-78
2023/01/26 10:02:56;;;;;;;9.88;6.25;;;;;;;7.54;100.00;103217.38;5006835;28;20053;-80
2023/01/26 10:05:34;;;;;;;11.45;5.97;;;;;;;7.52;100.00;103208.63;5006932;28;20575;-78
2023/01/26 10:08:05;;;;;;;14.70;6.18;;;;;;;7.51;100.00;103211.97;5005442;28;20057;-78
2023/01/26 10:10:38;;;;;;;10.75;5.93;;;;;;;7.52;100.00;103213.78;5007258;28;20077;-78
2023/01/26 10:13:06;;;;;;;14.88;6.88;;;;;;;7.52;100.00;103219.81;5000091;28;20049;-78
2023/01/26 10:15:39;;;;;;;15.82;6.35;;;;;;;7.53;100.00;103218.13;5006473;28;20624;-79
2023/01/26 10:18:12;;;;;;;14.40;6.30;;;;;;;7.49;100.00;103219.59;5007931;28;20846;-79
2023/01/26 10:20:46;;;;;;;10.48;6.07;;;;;;;7.42;100.00;103206.06;5009961;28;20073;-78
2023/01/26 10:23:19;;;;;;;15.77;6.50;;;;;;;7.48;100.00;103212.63;5005981;28;20451;-79
2023/01/26 10:25:49;;;;;;;14.70;6.70;;;;;;;7.50;100.00;103210.19;5009439;28;20112;-78
2023/01/26 10:28:20;;;;;;;13.52;7.18;;;;;;;7.50;100.00;103216.22;5010980;28;20058;-79
2023/01/26 10:30:50;;;;;;;13.88;6.68;;;;;;;7.49;100.00;103210.94;4993778;28;20575;-78
2023/01/26 10:33:24;;;;;;;15.43;6.45;;;;;;;7.51;100.00;103211.97;4994204;28;20113;-77
2023/01/26 10:35:53;;;;;;;9.57;5.68;;;;;;;7.48;100.00;103210.03;4997608;28;20042;-78
2023/01/26 10:38:43;;;;;;;11.05;6.35;;;;;;;7.47;100.00;103209.94;5001955;28;20133;-80
2023/01/26 10:41:29;;;;;;;18.38;6.63;;;;;;;7.47;100.00;103204.78;5004765;28;20075;-78
2023/01/26 10:44:00;;;;;;;11.70;5.88;;;;;;;7.51;100.00;103211.97;5001385;28;20053;-78
2023/01/26 10:46:34;;;;;;;8.98;6.30;;;;;;;7.52;100.00;103219.81;5011212;28;20510;-78
2023/01/26 10:49:04;;;;;;;12.05;6.82;;;;;;;7.52;100.00;103213.78;5010106;28;20049;-78
2023/01/26 10:51:34;;;;;;;13.95;5.85;;;;;;;7.54;100.00;103225.13;5004386;28;20105;-79
2023/01/26 10:54:21;;;;;;;10.63;5.75;;;;;;;7.52;100.00;103224.97;5003927;28;20042;-79
2023/01/26 10:56:52;;;;;;;10.32;5.90;;;;;;;7.53;100.00;103220.72;5005670;28;20507;-78
2023/01/26 10:59:31;;;;;;;11.48;6.28;;;;;;;7.49;100.00;103223.81;5001313;28;20054;-78
2023/01/26 11:02:02;;;;;;;14.85;7.55;;;;;;;7.43;100.00;103213.94;5008493;28;20050;-79
2023/01/26 11:04:31;;;;;;;11.88;5.68;;;;;;;7.39;100.00;103217.03;5004098;28;20211;-78
2023/01/26 11:07:23;;;;;;;12.10;6.40;;;;;;;7.34;100.00;103213.19;5011338;28;20435;-80
2023/01/26 11:09:54;;;;;;;9.23;5.55;;;;;;;7.36;100.00;103210.72;5006468;28;20041;-80
2023/01/26 11:12:25;;;;;;;11.38;5.72;;;;;;;7.38;100.00;103214.34;5009695;28;20042;-81
2023/01/26 11:15:02;;;;;;;12.68;6.55;;;;;;;7.39;100.00;103211.88;5009960;28;20050;-79
2023/01/26 11:17:36;;;;;;;12.13;6.07;;;;;;;7.38;100.00;103211.75;5008935;28;20137;-79
2023/01/26 11:20:28;;;;;;;13.75;6.55;;;;;;;7.41;100.00;103204.28;5004497;28;20136;-79
2023/01/26 11:23:04;;;;;;;13.77;5.35;;;;;;;7.41;100.00;103210.31;5005645;28;20050;-78
2023/01/26 11:25:45;;;;;;;13.10;6.15;;;;;;;7.44;100.00;103214.81;5009799;28;20050;-79
2023/01/26 11:28:30;;;;;;;11.80;6.35;;;;;;;7.46;100.00;103209.00;5002345;28;20054;-79
2023/01/26 11:31:15;;;;;;;7.80;4.38;;;;;;;7.50;100.00;103210.19;5002888;28;20054;-78
2023/01/26 11:33:55;;;;;;;15.77;7.03;;;;;;;7.43;100.00;103195.00;5000434;28;20081;-79
2023/01/26 11:36:35;;;;;;;12.35;6.47;;;;;;;7.54;100.00;103209.66;5001085;28;20412;-78
2023/01/26 11:39:17;;;;;;;13.88;7.18;;;;;;;7.50;100.00;103210.19;5005974;28;20045;-79
2023/01/26 11:42:01;;;;;;;11.60;5.70;;;;;;;7.46;100.00;103205.53;5012117;28;20050;-79
2023/01/26 11:44:53;;;;;;;14.55;6.05;;;;;;;7.46;100.00;103209.00;5012896;28;20096;-78
2023/01/26 11:47:44;;;;;;;17.65;7.95;;;;;;;7.49;100.00;103213.50;4994529;28;20045;-80
2023/01/26 11:50:35;;;;;;;13.48;6.03;;;;;;;7.50;100.00;103210.19;5014531;28;20101;-79
2023/01/26 11:53:25;;;;;;;12.98;6.13;;;;;;;7.40;100.00;103194.72;5007133;28;20050;-79
2023/01/26 11:56:08;;;;;;;13.57;6.25;;;;;;;7.48;100.00;103209.16;5016841;28;20061;-80
2023/01/26 11:58:43;;;;;;;9.70;5.18;;;;;;;7.47;100.00;103204.78;5008411;28;20048;-79
2023/01/26 12:01:19;;;;;;;13.45;5.65;;;;;;;7.45;100.00;103201.19;5007243;28;20046;-79
2023/01/26 12:03:50;;;;;;;11.40;6.65;;;;;;;7.44;100.00;103194.22;5011452;28;20125;-78
2023/01/26 12:06:24;;;;;;;12.23;5.95;;;;;;;7.44;100.00;103200.25;5012679;28;20050;-78
2023/01/26 12:08:57;;;;;;;14.43;5.90;;;;;;;7.44;100.00;103194.22;5011727;28;20104;-78
2023/01/26 12:11:31;;;;;;;12.18;5.60;;;;;;;7.44;100.00;103189.94;5014361;28;20053;-78
2023/01/26 12:14:17;;;;;;;9.82;4.75;;;;;;;7.39;100.00;103174.91;5014965;28;20054;-76
2023/01/26 12:17:10;;;;;;;15.18;5.68;;;;;;;7.28;100.00;103167.22;5007501;28;20050;-77
2023/01/26 12:19:46;;;;;;;10.77;4.88;;;;;;;7.24;100.00;103162.59;4999165;28;20077;-77
2023/01/26 12:22:19;;;;;;;15.45;6.25;;;;;;;7.23;100.00;103165.94;5012854;28;20787;-79
2023/01/26 12:24:53;;;;;;;12.35;6.40;;;;;;;7.23;100.00;103158.22;5014147;28;20072;-78
2023/01/26 12:27:28;;;;;;;12.52;6.47;;;;;;;7.26;100.00;103163.63;5003039;28;20050;-78